Fruitland, Texas
Current Conditions -  °F | °C
As of 12:55 AM on Sunday 21 Dec 2014 (Local Time) from K0F2 Reporting Station
Haze Haze  
Wind Chill: 44°   Ceiling: 400
Heat Index: 44°   Visibility: 4mi
Dew Point: 43°   Wind: 3mph
Humidity: 97%   Direction: 140°SE
Pressure: 30.14"   Gusts: NA
Location:  33.5529°N, 97.8448°W
Report Text: K0F2 210655Z AUTO 14003KT 4SM BR OVC004 07/06 A3014 RMK AO2 T00660062
Loading
Personal Weather Stations






























Interactive Weather Map New forecast layout! Learn more

10-Day Weather Forecast

Advertisements
Track Severe Weather on mobile